createdAt,value
2019-05-14T00:01:03.736Z,103111.95
2019-05-14T00:02:08.721Z,103108.84
2019-05-14T00:03:14.283Z,103112.09
2019-05-14T00:04:19.031Z,103110.97
2019-05-14T00:05:24.850Z,103109.17
2019-05-14T00:06:31.155Z,103114.94
2019-05-14T00:07:36.491Z,103111.05
2019-05-14T00:08:41.796Z,103106.71
2019-05-14T00:09:47.040Z,103113.59
2019-05-14T00:10:52.503Z,103113.15
2019-05-14T00:11:57.781Z,103112.40
2019-05-14T00:13:03.114Z,103116.67
2019-05-14T00:14:08.652Z,103117.28
2019-05-14T00:15:14.046Z,103122.36
2019-05-14T00:16:22.241Z,103115.78
2019-05-14T00:17:26.288Z,103116.59
2019-05-14T00:18:31.753Z,103122.08
2019-05-14T00:19:36.703Z,103128.05
2019-05-14T00:20:42.114Z,103125.54
2019-05-14T00:21:47.553Z,103128.21
2019-05-14T00:22:53.654Z,103121.67
2019-05-14T00:23:58.723Z,103127.39
2019-05-14T00:25:05.043Z,103118.44
2019-05-14T00:26:12.150Z,103123.41
2019-05-14T00:27:17.416Z,103125.48
2019-05-14T00:28:22.645Z,103120.56
2019-05-14T00:29:28.218Z,103125.15
2019-05-14T00:30:33.809Z,103120.91
2019-05-14T00:31:39.402Z,103125.67
2019-05-14T00:32:44.380Z,103126.83
2019-05-14T00:33:51.268Z,103124.00
2019-05-14T00:34:56.795Z,103125.16
2019-05-14T00:36:02.653Z,103121.55
2019-05-14T00:37:07.978Z,103127.46
2019-05-14T00:38:13.799Z,103124.02
2019-05-14T00:39:21.331Z,103124.48
2019-05-14T00:40:27.059Z,103118.53
2019-05-14T00:41:32.342Z,103121.03
2019-05-14T00:42:38.201Z,103119.82
2019-05-14T00:43:43.178Z,103111.73
2019-05-14T00:44:54.530Z,103113.05
2019-05-14T00:45:55.208Z,103112.77
2019-05-14T00:47:02.218Z,103112.73
2019-05-14T00:48:07.170Z,103109.09
2019-05-14T00:49:12.723Z,103104.98
2019-05-14T00:50:17.526Z,103104.18
2019-05-14T00:51:23.206Z,103113.09
2019-05-14T00:52:27.930Z,103110.53
2019-05-14T00:53:33.488Z,103111.12
2019-05-14T00:54:38.871Z,103107.55
2019-05-14T00:55:44.980Z,103109.66
2019-05-14T00:56:52.059Z,103108.01
2019-05-14T00:57:57.313Z,103117.30
2019-05-14T00:59:02.681Z,103118.58
2019-05-14T01:00:07.796Z,103116.01
2019-05-14T01:01:13.380Z,103114.77
2019-05-14T01:02:21.617Z,103112.41
2019-05-14T01:03:25.947Z,103112.18
2019-05-14T01:04:31.681Z,103110.00
2019-05-14T01:05:37.242Z,103109.80
2019-05-14T01:06:42.523Z,103111.70
2019-05-14T01:07:47.672Z,103112.53
2019-05-14T01:08:53.949Z,103110.59
2019-05-14T01:10:01.179Z,103108.50
2019-05-14T01:11:06.357Z,103112.98
2019-05-14T01:12:14.139Z,103109.09
2019-05-14T01:13:21.977Z,103108.85
2019-05-14T01:14:26.778Z,103105.23
2019-05-14T01:15:32.390Z,103099.16
2019-05-14T01:16:37.529Z,103106.33
2019-05-14T01:17:43.077Z,103105.63
2019-05-14T01:18:48.209Z,103106.51
2019-05-14T01:19:54.303Z,103102.14
2019-05-14T01:21:01.080Z,103100.99
2019-05-14T01:22:06.593Z,103104.89
2019-05-14T01:23:11.580Z,103100.11
2019-05-14T01:24:17.723Z,103103.27
2019-05-14T01:25:23.646Z,103101.53
2019-05-14T01:26:31.060Z,103112.58
2019-05-14T01:27:36.276Z,103107.59
2019-05-14T01:28:42.161Z,103106.03
2019-05-14T01:29:47.561Z,103103.38
2019-05-14T01:30:53.522Z,103104.89
2019-05-14T01:31:58.665Z,103111.24
2019-05-14T01:33:04.050Z,103106.66
2019-05-14T01:34:11.186Z,103110.06
2019-05-14T01:35:16.462Z,103112.78
2019-05-14T01:36:21.691Z,103100.93
2019-05-14T01:37:27.169Z,103104.93
2019-05-14T01:38:31.932Z,103109.23
2019-05-14T01:39:38.022Z,103101.05
2019-05-14T01:40:43.318Z,103115.11
2019-05-14T01:41:51.526Z,103109.90
2019-05-14T01:42:57.135Z,103105.64
2019-05-14T01:44:03.124Z,103101.61
2019-05-14T01:45:21.914Z,103102.55
2019-05-14T01:46:15.407Z,103100.58
2019-05-14T01:47:21.379Z,103102.49
2019-05-14T01:48:26.828Z,103105.64
2019-05-14T01:49:31.978Z,103102.84
2019-05-14T01:50:37.548Z,103108.91
2019-05-14T01:51:42.551Z,103101.75
2019-05-14T01:52:48.393Z,103106.08
2019-05-14T01:53:53.767Z,103098.74
2019-05-14T01:54:59.324Z,103110.79
2019-05-14T01:56:04.725Z,103108.55
2019-05-14T01:57:11.485Z,103108.11
2019-05-14T01:58:16.821Z,103106.16
2019-05-14T01:59:21.832Z,103104.84
2019-05-14T02:00:26.653Z,103098.83
2019-05-14T02:01:32.002Z,103098.70
2019-05-14T02:02:37.330Z,103099.93
2019-05-14T02:03:43.168Z,103105.05
2019-05-14T02:04:47.957Z,103101.63
2019-05-14T02:05:53.878Z,103098.20
2019-05-14T02:06:59.151Z,103095.95
2019-05-14T02:08:04.730Z,103094.19
2019-05-14T02:09:11.113Z,103092.10
2019-05-14T02:10:17.875Z,103095.00
2019-05-14T02:11:23.208Z,103095.28
2019-05-14T02:12:28.817Z,103089.55
2019-05-14T02:13:33.842Z,103086.14
2019-05-14T02:14:39.102Z,103083.67
2019-05-14T02:15:43.806Z,103081.74
2019-05-14T02:16:51.078Z,103081.49
2019-05-14T02:17:56.248Z,103076.88
2019-05-14T02:19:02.373Z,103084.35
2019-05-14T02:20:07.922Z,103077.45
2019-05-14T02:21:13.499Z,103080.31
2019-05-14T02:22:18.472Z,103088.16
2019-05-14T02:23:24.143Z,103079.03
2019-05-14T02:24:29.434Z,103079.84
2019-05-14T02:25:34.966Z,103080.72
2019-05-14T02:26:42.205Z,103080.14
2019-05-14T02:27:47.488Z,103075.22
2019-05-14T02:28:53.019Z,103079.48
2019-05-14T02:29:58.323Z,103079.91
2019-05-14T02:31:04.064Z,103077.72
2019-05-14T02:32:11.863Z,103083.16
2019-05-14T02:33:19.238Z,103085.78
2019-05-14T02:34:23.755Z,103087.67
2019-05-14T02:35:29.825Z,103084.13
2019-05-14T02:36:35.112Z,103079.19
2019-05-14T02:37:40.524Z,103075.91
2019-05-14T02:38:49.100Z,103076.16
2019-05-14T02:39:59.470Z,103076.20
2019-05-14T02:41:03.349Z,103072.75
2019-05-14T02:42:09.418Z,103070.87
2019-05-14T02:43:16.081Z,103070.91
2019-05-14T02:44:21.644Z,103067.61
2019-05-14T02:45:30.069Z,103076.70
2019-05-14T02:46:34.044Z,103076.85
2019-05-14T02:47:41.682Z,103074.72
2019-05-14T02:48:49.115Z,103079.19
2019-05-14T02:49:58.765Z,103072.52
2019-05-14T02:51:03.062Z,103073.16
2019-05-14T02:52:10.020Z,103067.81
2019-05-14T02:53:19.528Z,103071.83
2019-05-14T02:54:23.337Z,103076.25
2019-05-14T02:55:29.889Z,103074.28
2019-05-14T02:56:35.116Z,103068.73
2019-05-14T02:57:40.749Z,103075.57
2019-05-14T02:58:49.629Z,103075.46
2019-05-14T02:59:53.621Z,103072.61
2019-05-14T03:01:00.423Z,103067.69
2019-05-14T03:02:05.836Z,103076.09
2019-05-14T03:03:11.375Z,103066.05
2019-05-14T03:04:19.768Z,103073.09
2019-05-14T03:05:24.562Z,103067.81
2019-05-14T03:06:29.911Z,103069.63
2019-05-14T03:07:38.971Z,103071.59
2019-05-14T03:08:42.675Z,103066.66
2019-05-14T03:09:50.244Z,103067.05
2019-05-14T03:10:55.505Z,103076.26
2019-05-14T03:12:01.019Z,103074.81
2019-05-14T03:13:05.731Z,103074.06
2019-05-14T03:14:11.354Z,103069.80
2019-05-14T03:15:16.093Z,103075.71
2019-05-14T03:16:30.426Z,103071.27
2019-05-14T03:17:29.987Z,103075.30
2019-05-14T03:18:39.419Z,103076.42
2019-05-14T03:19:42.890Z,103076.34
2019-05-14T03:20:50.220Z,103079.02
2019-05-14T03:21:55.546Z,103078.36
2019-05-14T03:23:08.481Z,103080.92
2019-05-14T03:24:09.462Z,103080.42
2019-05-14T03:25:15.333Z,103083.27
2019-05-14T03:26:20.373Z,103086.73
2019-05-14T03:27:30.091Z,103084.89
2019-05-14T03:28:32.868Z,103088.63
2019-05-14T03:29:39.798Z,103091.12
2019-05-14T03:30:45.249Z,103093.73
2019-05-14T03:31:52.892Z,103088.88
2019-05-14T03:33:02.902Z,103090.06
2019-05-14T03:34:04.838Z,103088.06
2019-05-14T03:35:13.626Z,103092.72
2019-05-14T03:36:23.820Z,103096.69
2019-05-14T03:37:24.592Z,103096.09
2019-05-14T03:38:30.434Z,103092.78
2019-05-14T03:39:35.456Z,103095.82
2019-05-14T03:40:41.074Z,103096.75
2019-05-14T03:41:46.130Z,103093.52
2019-05-14T03:42:51.804Z,103093.45
2019-05-14T03:43:59.803Z,103095.11
2019-05-14T03:45:04.116Z,103097.84
2019-05-14T03:46:09.786Z,103099.39
2019-05-14T03:47:15.740Z,103099.35
2019-05-14T03:48:21.144Z,103094.81
2019-05-14T03:49:28.821Z,103096.81
2019-05-14T03:50:34.233Z,103096.73
2019-05-14T03:51:40.079Z,103092.13
2019-05-14T03:52:45.346Z,103094.00
2019-05-14T03:54:01.121Z,103088.68
2019-05-14T03:55:01.294Z,103089.61
2019-05-14T03:56:04.312Z,103096.33
2019-05-14T03:57:10.075Z,103088.88
2019-05-14T03:58:15.156Z,103086.30
2019-05-14T03:59:20.890Z,103088.06
2019-05-14T04:00:50.860Z,103089.36
2019-05-14T04:01:59.389Z,103085.52
2019-05-14T04:03:03.982Z,103084.37
2019-05-14T04:04:10.379Z,103082.94
2019-05-14T04:05:18.877Z,103082.50
2019-05-14T04:06:24.218Z,103081.89
2019-05-14T04:07:32.286Z,103075.97
2019-05-14T04:08:39.778Z,103075.30
2019-05-14T04:09:49.469Z,103081.64
2019-05-14T04:10:58.964Z,103077.25
2019-05-14T04:12:05.587Z,103079.14
2019-05-14T04:13:12.175Z,103082.53
2019-05-14T04:14:20.261Z,103073.23
2019-05-14T04:15:29.843Z,103076.26
2019-05-14T04:16:39.841Z,103079.22
2019-05-14T04:17:49.866Z,103079.72
2019-05-14T04:18:59.233Z,103078.27
2019-05-14T04:20:04.247Z,103075.26
2019-05-14T04:21:10.497Z,103075.26
2019-05-14T04:22:15.071Z,103081.64
2019-05-14T04:23:24.210Z,103078.98
2019-05-14T04:24:31.534Z,103086.28
2019-05-14T04:25:39.315Z,103086.36
2019-05-14T04:26:58.353Z,103087.56
2019-05-14T04:27:59.590Z,103086.98
2019-05-14T04:29:05.089Z,103090.71
2019-05-14T04:30:12.803Z,103086.52
2019-05-14T04:31:19.285Z,103083.78
2019-05-14T04:32:28.951Z,103088.35
2019-05-14T04:33:35.383Z,103083.03
2019-05-14T04:34:41.184Z,103088.75
2019-05-14T04:35:49.000Z,103093.39
2019-05-14T04:36:54.345Z,103086.36
2019-05-14T04:37:59.444Z,103095.29
2019-05-14T04:39:09.195Z,103094.84
2019-05-14T04:40:12.768Z,103096.09
2019-05-14T04:41:19.720Z,103100.41
2019-05-14T04:42:25.424Z,103097.91
2019-05-14T04:43:31.744Z,103099.72
2019-05-14T04:44:39.996Z,103093.55
2019-05-14T04:45:44.202Z,103093.19
2019-05-14T04:46:49.674Z,103094.20
2019-05-14T04:47:55.445Z,103092.75
2019-05-14T04:49:00.260Z,103099.52
2019-05-14T04:50:10.235Z,103098.45
2019-05-14T04:51:13.549Z,103098.88
2019-05-14T04:52:20.566Z,103100.51
2019-05-14T04:53:26.198Z,103099.60
2019-05-14T04:54:31.814Z,103096.86
2019-05-14T04:55:39.899Z,103091.08
2019-05-14T04:56:44.497Z,103090.97
2019-05-14T04:57:50.397Z,103090.86
2019-05-14T04:58:55.991Z,103083.61
2019-05-14T05:00:00.900Z,103082.02
2019-05-14T05:01:09.801Z,103081.69
2019-05-14T05:02:14.427Z,103080.09
2019-05-14T05:03:20.251Z,103077.70
2019-05-14T05:04:25.556Z,103078.63
2019-05-14T05:05:31.448Z,103079.31
2019-05-14T05:06:39.374Z,103087.02
2019-05-14T05:07:43.234Z,103084.34
2019-05-14T05:08:49.896Z,103085.32
2019-05-14T05:09:59.144Z,103094.77
2019-05-14T05:11:03.077Z,103095.88
2019-05-14T05:12:09.489Z,103100.90
2019-05-14T05:13:14.520Z,103096.37
2019-05-14T05:14:23.624Z,103097.67
2019-05-14T05:15:29.076Z,103100.00
2019-05-14T05:16:34.812Z,103098.08
2019-05-14T05:17:48.273Z,103097.73
2019-05-14T05:18:49.183Z,103099.45
2019-05-14T05:19:54.135Z,103096.59
2019-05-14T05:20:59.425Z,103092.42
2019-05-14T05:22:03.898Z,103092.09
2019-05-14T05:23:09.768Z,103095.34
2019-05-14T05:24:14.547Z,103092.34
2019-05-14T05:25:20.538Z,103094.38
2019-05-14T05:26:25.311Z,103089.70
2019-05-14T05:27:30.920Z,103086.16
2019-05-14T05:28:38.898Z,103085.91
2019-05-14T05:29:44.299Z,103082.56
2019-05-14T05:30:49.452Z,103085.74
2019-05-14T05:31:54.850Z,103089.20
2019-05-14T05:33:00.191Z,103085.48
2019-05-14T05:34:05.921Z,103084.66
2019-05-14T05:35:10.465Z,103085.31
2019-05-14T05:36:15.658Z,103089.61
2019-05-14T05:37:20.730Z,103083.81
2019-05-14T05:38:26.076Z,103083.32
2019-05-14T05:39:31.439Z,103083.28
2019-05-14T05:40:39.174Z,103082.53
2019-05-14T05:41:44.205Z,103080.78
2019-05-14T05:42:50.354Z,103077.77
2019-05-14T05:43:59.067Z,103073.63
2019-05-14T05:45:04.719Z,103088.39
2019-05-14T05:46:10.005Z,103081.14
2019-05-14T05:47:18.031Z,103079.70
2019-05-14T05:48:22.302Z,103083.33
2019-05-14T05:49:29.136Z,103081.03
2019-05-14T05:50:34.205Z,103078.22
2019-05-14T05:51:39.920Z,103075.41
2019-05-14T05:52:44.659Z,103075.66
2019-05-14T05:53:50.353Z,103076.90
2019-05-14T05:54:55.277Z,103078.24
2019-05-14T05:56:01.223Z,103078.20
2019-05-14T05:57:09.043Z,103071.97
2019-05-14T05:58:13.705Z,103071.23
2019-05-14T05:59:18.998Z,103070.91
2019-05-14T06:00:35.549Z,103063.52
2019-05-14T06:01:46.018Z,103066.29
2019-05-14T06:02:49.093Z,103065.30
2019-05-14T06:03:54.177Z,103069.47
2019-05-14T06:05:00.164Z,103068.48
2019-05-14T06:06:04.993Z,103066.04
2019-05-14T06:07:11.092Z,103068.03
2019-05-14T06:08:18.714Z,103063.59
2019-05-14T06:09:23.838Z,103069.00
2019-05-14T06:10:29.374Z,103064.73
2019-05-14T06:11:34.698Z,103059.17
2019-05-14T06:12:39.808Z,103066.03
2019-05-14T06:13:48.314Z,103064.63
2019-05-14T06:14:53.004Z,103068.85
2019-05-14T06:15:59.355Z,103074.20
2019-05-14T06:17:04.662Z,103062.80
2019-05-14T06:18:17.374Z,103064.13
2019-05-14T06:19:18.572Z,103067.50
2019-05-14T06:20:23.646Z,103072.38
2019-05-14T06:21:29.347Z,103063.38
2019-05-14T06:22:35.280Z,103061.25
2019-05-14T06:23:40.081Z,103065.49
2019-05-14T06:24:48.344Z,103064.80
2019-05-14T06:25:54.835Z,103060.52
2019-05-14T06:27:00.689Z,103062.98
2019-05-14T06:28:05.828Z,103070.70
2019-05-14T06:29:11.779Z,103065.55
2019-05-14T06:30:28.493Z,103064.63
2019-05-14T06:31:34.361Z,103060.77
2019-05-14T06:32:39.859Z,103054.83
2019-05-14T06:33:48.415Z,103058.09
2019-05-14T06:34:52.647Z,103052.75
2019-05-14T06:35:59.161Z,103055.30
2019-05-14T06:37:04.931Z,103056.19
2019-05-14T06:38:10.617Z,103055.50
2019-05-14T06:39:18.204Z,103055.50
2019-05-14T06:40:23.196Z,103057.27
2019-05-14T06:41:28.802Z,103056.29
2019-05-14T06:42:34.751Z,103049.87
2019-05-14T06:43:39.863Z,103046.47
2019-05-14T06:44:45.269Z,103050.81
2019-05-14T06:45:50.092Z,103050.15
2019-05-14T06:46:55.698Z,103053.45
2019-05-14T06:48:00.721Z,103051.13
2019-05-14T06:49:08.931Z,103047.67
2019-05-14T06:50:12.984Z,103045.50
2019-05-14T06:51:19.835Z,103047.30
2019-05-14T06:52:25.557Z,103051.08
2019-05-14T06:53:30.682Z,103049.75
2019-05-14T06:54:35.450Z,103045.88
2019-05-14T06:55:41.459Z,103049.97
2019-05-14T06:56:48.655Z,103042.72
2019-05-14T06:57:53.346Z,103037.08
2019-05-14T06:58:58.679Z,103034.45
2019-05-14T07:00:04.537Z,103031.38
2019-05-14T07:01:09.972Z,103028.93
2019-05-14T07:02:15.835Z,103026.91
2019-05-14T07:03:20.619Z,103029.55
2019-05-14T07:04:28.624Z,103027.21
2019-05-14T07:05:33.413Z,103027.50
2019-05-14T07:06:39.229Z,103035.23
2019-05-14T07:07:44.636Z,103027.34
2019-05-14T07:08:52.663Z,103033.66
2019-05-14T07:09:58.180Z,103032.86
2019-05-14T07:11:04.090Z,103024.50
2019-05-14T07:12:09.230Z,103029.78
2019-05-14T07:13:14.635Z,103035.72
2019-05-14T07:14:19.744Z,103029.98
2019-05-14T07:15:25.024Z,103025.80
2019-05-14T07:16:29.534Z,103031.50
2019-05-14T07:17:34.900Z,103023.77
2019-05-14T07:18:52.790Z,103024.20
2019-05-14T07:19:49.110Z,103033.61
2019-05-14T07:20:54.891Z,103035.48
2019-05-14T07:22:00.003Z,103027.86
2019-05-14T07:23:05.061Z,103017.92
2019-05-14T07:24:11.351Z,103027.48
2019-05-14T07:25:18.364Z,103023.48
2019-05-14T07:26:24.055Z,103017.07
2019-05-14T07:27:29.094Z,103024.48
2019-05-14T07:28:34.708Z,103020.40
2019-05-14T07:29:39.498Z,103017.77
2019-05-14T07:30:45.164Z,103020.30
2019-05-14T07:31:50.306Z,103017.00
2019-05-14T07:32:55.958Z,103017.00
2019-05-14T07:34:01.425Z,103020.73
2019-05-14T07:35:09.118Z,103017.91
2019-05-14T07:36:14.362Z,103016.14
2019-05-14T07:37:20.273Z,103015.48
2019-05-14T07:38:25.370Z,103015.96
2019-05-14T07:39:30.974Z,103007.91
2019-05-14T07:40:38.702Z,103013.79
2019-05-14T07:41:43.456Z,103005.44
2019-05-14T07:42:48.849Z,103004.80
2019-05-14T07:43:54.629Z,103010.25
2019-05-14T07:45:00.087Z,103008.66
2019-05-14T07:46:05.716Z,103010.48
2019-05-14T07:47:10.832Z,103005.95
2019-05-14T07:48:18.848Z,103000.86
2019-05-14T07:49:23.630Z,103003.16
2019-05-14T07:50:29.259Z,103002.17
2019-05-14T07:51:34.356Z,102995.87
2019-05-14T07:52:45.285Z,102998.91
2019-05-14T07:53:48.523Z,103001.28
2019-05-14T07:54:54.135Z,103000.94
2019-05-14T07:55:59.358Z,103007.08
2019-05-14T07:57:05.319Z,103002.34
2019-05-14T07:58:10.462Z,102999.28
2019-05-14T07:59:18.127Z,103003.97
2019-05-14T08:00:23.515Z,103008.19
2019-05-14T08:01:28.865Z,103009.02
2019-05-14T08:02:33.641Z,103003.80
2019-05-14T08:03:39.605Z,103008.22
2019-05-14T08:04:44.726Z,103006.06
2019-05-14T08:05:49.805Z,103006.19
2019-05-14T08:06:58.040Z,103010.67
2019-05-14T08:08:03.528Z,103009.14
2019-05-14T08:09:09.550Z,103002.28
2019-05-14T08:10:15.461Z,103003.24
2019-05-14T08:11:20.604Z,103000.27
2019-05-14T08:12:25.937Z,103000.41
2019-05-14T08:13:30.732Z,103002.75
2019-05-14T08:14:45.211Z,102992.48
2019-05-14T08:15:43.551Z,102990.91
2019-05-14T08:16:49.592Z,102995.31
2019-05-14T08:17:54.718Z,102990.82
2019-05-14T08:19:00.322Z,102990.99
2019-05-14T08:20:06.115Z,102988.16
2019-05-14T08:21:12.191Z,102990.13
2019-05-14T08:22:18.642Z,102981.36
2019-05-14T08:23:24.360Z,102978.45
2019-05-14T08:24:30.107Z,102982.05
2019-05-14T08:25:38.799Z,102981.61
2019-05-14T08:26:44.289Z,102989.19
2019-05-14T08:27:49.818Z,102977.81
2019-05-14T08:28:55.202Z,102983.97
2019-05-14T08:30:01.172Z,102975.81
2019-05-14T08:31:06.263Z,102978.63
2019-05-14T08:32:11.965Z,102982.42
2019-05-14T08:33:18.451Z,102980.26
2019-05-14T08:34:24.224Z,102979.09
2019-05-14T08:35:29.341Z,102986.59
2019-05-14T08:36:38.002Z,102983.55
2019-05-14T08:37:43.446Z,102981.47
2019-05-14T08:38:50.272Z,102986.22
2019-05-14T08:39:55.255Z,102981.97
2019-05-14T08:41:01.438Z,102978.05
2019-05-14T08:42:08.525Z,102982.47
2019-05-14T08:43:13.703Z,102978.47
2019-05-14T08:44:19.694Z,102975.25
2019-05-14T08:45:28.218Z,102971.05
2019-05-14T08:46:32.606Z,102972.42
2019-05-14T08:47:39.125Z,102973.17
2019-05-14T08:48:45.046Z,102962.47
2019-05-14T08:49:51.129Z,102964.91
2019-05-14T08:50:56.051Z,102963.73
2019-05-14T08:52:01.696Z,102963.78
2019-05-14T08:53:08.891Z,102969.70
2019-05-14T08:54:13.518Z,102962.23
2019-05-14T08:55:18.636Z,102958.91
2019-05-14T08:56:23.923Z,102952.64
2019-05-14T08:57:29.389Z,102953.48
2019-05-14T08:58:35.067Z,102948.19
2019-05-14T08:59:40.263Z,102951.38
2019-05-14T09:00:45.574Z,102952.80
2019-05-14T09:02:01.874Z,102945.19
2019-05-14T09:02:59.063Z,102951.08
2019-05-14T09:04:03.548Z,102948.00
2019-05-14T09:05:10.558Z,102948.45
2019-05-14T09:06:18.539Z,102948.17
2019-05-14T09:07:29.096Z,102945.69
2019-05-14T09:08:34.458Z,102950.47
2019-05-14T09:09:42.261Z,102945.06
2019-05-14T09:10:49.602Z,102944.02
2019-05-14T09:11:59.697Z,102945.55
2019-05-14T09:13:04.164Z,102940.16
2019-05-14T09:14:19.238Z,102935.42
2019-05-14T09:15:28.691Z,102934.16
2019-05-14T09:16:45.949Z,102934.66
2019-05-14T09:17:40.067Z,102940.04
2019-05-14T09:18:45.715Z,102927.02
2019-05-14T09:20:02.179Z,102928.80
2019-05-14T09:20:58.906Z,102923.62
2019-05-14T09:22:03.978Z,102927.87
2019-05-14T09:23:09.365Z,102921.89
2019-05-14T09:24:14.430Z,102923.06
2019-05-14T09:25:19.700Z,102927.91
2019-05-14T09:26:25.921Z,102923.16
2019-05-14T09:27:31.547Z,102917.89
2019-05-14T09:28:39.008Z,102907.78
2019-05-14T09:29:43.529Z,102902.83
2019-05-14T09:30:49.170Z,102900.80
2019-05-14T09:31:54.843Z,102908.25
2019-05-14T09:32:59.517Z,102898.69
2019-05-14T09:34:05.261Z,102896.50
2019-05-14T09:35:10.803Z,102894.39
2019-05-14T09:36:20.479Z,102883.19
2019-05-14T09:37:23.569Z,102881.84
2019-05-14T09:38:29.608Z,102888.59
2019-05-14T09:39:34.779Z,102887.89
2019-05-14T09:40:40.713Z,102891.08
2019-05-14T09:41:48.229Z,102889.47
2019-05-14T09:42:54.342Z,102883.28
2019-05-14T09:43:59.521Z,102881.03
2019-05-14T09:45:04.934Z,102879.98
2019-05-14T09:46:09.759Z,102882.33
2019-05-14T09:47:15.427Z,102891.78
2019-05-14T09:48:20.003Z,102885.78
2019-05-14T09:49:28.101Z,102883.92
2019-05-14T09:50:32.504Z,102877.16
2019-05-14T09:51:38.555Z,102881.58
2019-05-14T09:52:43.849Z,102882.69
2019-05-14T09:53:49.252Z,102882.08
2019-05-14T09:54:54.497Z,102879.61
2019-05-14T09:55:59.818Z,102887.42
2019-05-14T09:57:04.907Z,102881.86
2019-05-14T09:58:10.539Z,102891.80
2019-05-14T09:59:15.593Z,102885.20
2019-05-14T10:00:20.646Z,102892.33
2019-05-14T10:01:25.560Z,102891.16
2019-05-14T10:02:30.898Z,102885.65
2019-05-14T10:03:38.683Z,102887.25
2019-05-14T10:04:44.020Z,102871.93
2019-05-14T10:05:50.146Z,102876.71
2019-05-14T10:06:59.020Z,102871.78
2019-05-14T10:08:03.150Z,102877.54
2019-05-14T10:09:08.794Z,102865.23
2019-05-14T10:10:13.978Z,102866.72
2019-05-14T10:11:19.716Z,102874.49
2019-05-14T10:12:25.387Z,102873.00
2019-05-14T10:13:30.850Z,102876.30
2019-05-14T10:14:35.633Z,102875.72
2019-05-14T10:15:41.569Z,102879.78
2019-05-14T10:16:48.885Z,102873.52
2019-05-14T10:17:53.542Z,102874.59
2019-05-14T10:18:58.781Z,102868.03
2019-05-14T10:20:03.870Z,102883.55
2019-05-14T10:21:09.168Z,102876.43
2019-05-14T10:22:14.794Z,102880.83
2019-05-14T10:23:19.902Z,102876.34
2019-05-14T10:24:25.476Z,102870.71
2019-05-14T10:25:30.698Z,102863.66
2019-05-14T10:26:39.199Z,102872.49
2019-05-14T10:27:43.680Z,102867.73
2019-05-14T10:28:48.817Z,102875.16
2019-05-14T10:29:54.470Z,102874.18
2019-05-14T10:31:03.647Z,102865.59
2019-05-14T10:32:08.692Z,102870.63
2019-05-14T10:33:14.927Z,102871.01
2019-05-14T10:34:20.144Z,102866.20
2019-05-14T10:35:25.694Z,102872.80
2019-05-14T10:36:31.137Z,102865.86
2019-05-14T10:37:39.803Z,102867.27
2019-05-14T10:38:43.816Z,102883.42
2019-05-14T10:39:50.098Z,102875.81
2019-05-14T10:40:55.291Z,102879.83
2019-05-14T10:42:00.398Z,102881.88
2019-05-14T10:43:05.315Z,102875.47
2019-05-14T10:44:11.094Z,102882.74
2019-05-14T10:45:18.479Z,102867.81
2019-05-14T10:46:23.592Z,102857.83
2019-05-14T10:47:29.207Z,102860.16
2019-05-14T10:48:35.484Z,102854.09
2019-05-14T10:49:40.216Z,102860.87
2019-05-14T10:50:59.079Z,102863.34
2019-05-14T10:51:52.992Z,102868.94
2019-05-14T10:52:59.451Z,102855.91
2019-05-14T10:54:18.783Z,102864.48
2019-05-14T10:55:12.083Z,102855.97
2019-05-14T10:56:19.354Z,102859.38
2019-05-14T10:57:25.096Z,102862.69
2019-05-14T10:58:29.930Z,102862.65
2019-05-14T10:59:35.571Z,102858.45
2019-05-14T11:00:42.006Z,102861.47
2019-05-14T11:01:47.946Z,102851.22
2019-05-14T11:02:53.014Z,102844.31
2019-05-14T11:03:58.697Z,102846.98
2019-05-14T11:05:03.757Z,102847.72
2019-05-14T11:06:11.655Z,102841.58
2019-05-14T11:07:15.699Z,102830.33
2019-05-14T11:08:21.311Z,102826.34
2019-05-14T11:09:28.601Z,102830.00
2019-05-14T11:10:33.853Z,102837.61
2019-05-14T11:11:38.863Z,102831.33
2019-05-14T11:12:44.728Z,102821.60
2019-05-14T11:13:49.197Z,102826.63
2019-05-14T11:14:54.546Z,102826.31
2019-05-14T11:15:59.846Z,102824.27
2019-05-14T11:17:05.369Z,102821.97
2019-05-14T11:18:10.684Z,102815.66
2019-05-14T11:19:18.647Z,102817.92
2019-05-14T11:20:22.522Z,102813.29
2019-05-14T11:21:30.286Z,102812.34
2019-05-14T11:22:35.586Z,102813.15
2019-05-14T11:23:40.908Z,102812.42
2019-05-14T11:24:45.925Z,102811.83
2019-05-14T11:25:51.345Z,102810.59
2019-05-14T11:26:58.996Z,102807.95
2019-05-14T11:28:03.757Z,102816.84
2019-05-14T11:29:09.860Z,102810.45
2019-05-14T11:30:15.200Z,102805.48
2019-05-14T11:31:20.054Z,102796.50
2019-05-14T11:32:25.730Z,102797.03
2019-05-14T11:33:31.146Z,102794.91
2019-05-14T11:34:39.109Z,102795.80
2019-05-14T11:35:43.543Z,102776.44
2019-05-14T11:36:49.972Z,102770.13
2019-05-14T11:37:55.271Z,102773.69
2019-05-14T11:39:03.718Z,102791.06
2019-05-14T11:40:08.738Z,102783.73
2019-05-14T11:41:14.631Z,102784.11
2019-05-14T11:42:19.843Z,102786.45
2019-05-14T11:43:28.507Z,102780.77
2019-05-14T11:44:32.544Z,102788.28
2019-05-14T11:45:39.241Z,102775.81
2019-05-14T11:46:52.302Z,102782.41
2019-05-14T11:47:52.579Z,102770.64
2019-05-14T11:48:59.491Z,102769.00
2019-05-14T11:50:04.771Z,102763.81
2019-05-14T11:51:09.791Z,102766.98
2019-05-14T11:52:17.934Z,102764.61
2019-05-14T11:53:22.201Z,102763.42
2019-05-14T11:54:29.197Z,102766.89
2019-05-14T11:55:34.220Z,102763.94
2019-05-14T11:56:41.898Z,102763.69
2019-05-14T11:57:48.513Z,102764.86
2019-05-14T11:58:54.436Z,102761.28
2019-05-14T11:59:59.359Z,102766.47
2019-05-14T12:01:04.974Z,102759.71
2019-05-14T12:02:10.078Z,102756.64
2019-05-14T12:03:15.728Z,102753.72
2019-05-14T12:04:20.854Z,102746.87
2019-05-14T12:05:25.932Z,102746.78
2019-05-14T12:06:31.114Z,102741.77
2019-05-14T12:07:38.923Z,102744.88
2019-05-14T12:08:43.306Z,102743.95
2019-05-14T12:09:48.685Z,102736.05
2019-05-14T12:10:59.005Z,102727.36
2019-05-14T12:12:03.961Z,102724.96
2019-05-14T12:13:09.366Z,102722.88
2019-05-14T12:14:14.876Z,102724.48
2019-05-14T12:15:19.704Z,102721.22
2019-05-14T12:16:25.011Z,102721.21
2019-05-14T12:17:30.221Z,102721.22
2019-05-14T12:18:41.401Z,102717.06
2019-05-14T12:19:43.634Z,102713.66
2019-05-14T12:20:50.000Z,102706.64
2019-05-14T12:22:03.621Z,102712.53
2019-05-14T12:23:02.542Z,102702.91
2019-05-14T12:24:13.447Z,102696.68
2019-05-14T12:25:15.298Z,102702.34
2019-05-14T12:26:19.807Z,102701.11
2019-05-14T12:27:25.649Z,102693.83
2019-05-14T12:28:30.491Z,102687.03
2019-05-14T12:29:39.498Z,102689.98
2019-05-14T12:30:43.429Z,102677.78
2019-05-14T12:31:50.628Z,102686.88
2019-05-14T12:32:58.849Z,102687.66
2019-05-14T12:34:04.008Z,102679.91